sensor_id;sensor_type;location;lat;lon;timestamp;temperature;humidity
70151;DHT22;57517;43.562;19.540;2023-08-06T00:00:06;512.60;2380.80
70151;DHT22;57517;43.562;19.540;2023-08-06T00:02:32;512.40;2380.80
70151;DHT22;57517;43.562;19.540;2023-08-06T00:04:58;512.40;2380.80
70151;DHT22;57517;43.562;19.540;2023-08-06T00:07:24;512.60;2380.80
70151;DHT22;57517;43.562;19.540;2023-08-06T00:09:49;512.70;2380.80
70151;DHT22;57517;43.562;19.540;2023-08-06T00:12:15;512.60;2380.80
70151;DHT22;57517;43.562;19.540;2023-08-06T00:14:41;512.50;2380.80
70151;DHT22;57517;43.562;19.540;2023-08-06T00:17:08;512.30;2380.80
70151;DHT22;57517;43.562;19.540;2023-08-06T00:19:33;512.40;2380.80
70151;DHT22;57517;43.562;19.540;2023-08-06T00:21:59;512.40;2380.80
70151;DHT22;57517;43.562;19.540;2023-08-06T00:24:25;512.40;2380.80
70151;DHT22;57517;43.562;19.540;2023-08-06T00:26:51;512.50;2380.80
70151;DHT22;57517;43.562;19.540;2023-08-06T00:29:16;512.30;2380.80
70151;DHT22;57517;43.562;19.540;2023-08-06T00:31:42;512.40;2380.80
70151;DHT22;57517;43.562;19.540;2023-08-06T00:34:08;512.70;2380.80
70151;DHT22;57517;43.562;19.540;2023-08-06T00:36:34;512.80;2380.80
70151;DHT22;57517;43.562;19.540;2023-08-06T00:38:59;512.90;2380.80
70151;DHT22;57517;43.562;19.540;2023-08-06T00:41:25;537.60;2406.40
70151;DHT22;57517;43.562;19.540;2023-08-06T00:43:51;512.70;2380.80
70151;DHT22;57517;43.562;19.540;2023-08-06T00:46:17;512.60;2380.80
70151;DHT22;57517;43.562;19.540;2023-08-06T00:48:42;512.60;2380.80
70151;DHT22;57517;43.562;19.540;2023-08-06T00:51:10;512.50;2380.80
70151;DHT22;57517;43.562;19.540;2023-08-06T00:53:37;512.50;2380.80
70151;DHT22;57517;43.562;19.540;2023-08-06T00:56:03;512.40;2380.80
70151;DHT22;57517;43.562;19.540;2023-08-06T00:58:29;512.60;2380.80
70151;DHT22;57517;43.562;19.540;2023-08-06T01:00:55;512.70;2380.80
70151;DHT22;57517;43.562;19.540;2023-08-06T01:03:21;512.70;2380.80
70151;DHT22;57517;43.562;19.540;2023-08-06T01:05:48;512.60;2380.80
70151;DHT22;57517;43.562;19.540;2023-08-06T01:13:52;512.60;2380.80
70151;DHT22;57517;43.562;19.540;2023-08-06T01:16:21;512.60;2380.80
70151;DHT22;57517;43.562;19.540;2023-08-06T01:18:47;512.70;2380.80
70151;DHT22;57517;43.562;19.540;2023-08-06T01:21:15;512.70;2380.80
70151;DHT22;57517;43.562;19.540;2023-08-06T01:23:42;512.60;2380.80
70151;DHT22;57517;43.562;19.540;2023-08-06T01:26:39;512.50;2380.80
70151;DHT22;57517;43.562;19.540;2023-08-06T01:29:17;512.50;2380.80
70151;DHT22;57517;43.562;19.540;2023-08-06T01:31:45;512.50;2380.80
70151;DHT22;57517;43.562;19.540;2023-08-06T01:34:19;512.50;2380.80
70151;DHT22;57517;43.562;19.540;2023-08-06T01:36:46;512.40;2380.80
70151;DHT22;57517;43.562;19.540;2023-08-06T01:39:12;512.40;2380.80
70151;DHT22;57517;43.562;19.540;2023-08-06T01:41:37;512.40;2380.80
70151;DHT22;57517;43.562;19.540;2023-08-06T01:44:03;512.40;2380.80
70151;DHT22;57517;43.562;19.540;2023-08-06T01:46:29;512.40;2380.80
70151;DHT22;57517;43.562;19.540;2023-08-06T01:48:55;512.60;2380.80
70151;DHT22;57517;43.562;19.540;2023-08-06T01:51:21;512.80;2380.80
70151;DHT22;57517;43.562;19.540;2023-08-06T01:53:46;537.70;2406.40
70151;DHT22;57517;43.562;19.540;2023-08-06T01:56:12;537.70;2406.40
70151;DHT22;57517;43.562;19.540;2023-08-06T01:58:38;537.70;2406.40
70151;DHT22;57517;43.562;19.540;2023-08-06T02:01:04;537.60;2406.40
70151;DHT22;57517;43.562;19.540;2023-08-06T02:03:29;512.80;2380.80
70151;DHT22;57517;43.562;19.540;2023-08-06T02:05:55;537.60;2406.40
70151;DHT22;57517;43.562;19.540;2023-08-06T02:08:21;537.70;2406.40
70151;DHT22;57517;43.562;19.540;2023-08-06T02:10:47;537.70;2406.40
70151;DHT22;57517;43.562;19.540;2023-08-06T02:13:12;537.60;2406.40
70151;DHT22;57517;43.562;19.540;2023-08-06T02:15:45;512.90;2380.80
70151;DHT22;57517;43.562;19.540;2023-08-06T02:18:13;512.70;2380.80
70151;DHT22;57517;43.562;19.540;2023-08-06T02:20:40;512.60;2380.80
70151;DHT22;57517;43.562;19.540;2023-08-06T02:23:06;512.70;2380.80
70151;DHT22;57517;43.562;19.540;2023-08-06T02:25:32;512.70;2380.80
70151;DHT22;57517;43.562;19.540;2023-08-06T02:27:58;512.90;2380.80
70151;DHT22;57517;43.562;19.540;2023-08-06T02:30:24;537.70;2406.40
70151;DHT22;57517;43.562;19.540;2023-08-06T02:32:50;537.60;2406.40
70151;DHT22;57517;43.562;19.540;2023-08-06T02:35:15;537.60;2406.40
70151;DHT22;57517;43.562;19.540;2023-08-06T02:37:41;512.90;2380.80
70151;DHT22;57517;43.562;19.540;2023-08-06T02:40:07;512.80;2380.80
70151;DHT22;57517;43.562;19.540;2023-08-06T02:42:33;512.80;2380.80
70151;DHT22;57517;43.562;19.540;2023-08-06T02:44:59;512.80;2380.80
70151;DHT22;57517;43.562;19.540;2023-08-06T02:47:25;512.90;2380.80
70151;DHT22;57517;43.562;19.540;2023-08-06T02:49:50;537.70;2406.40
70151;DHT22;57517;43.562;19.540;2023-08-06T02:52:16;537.60;2406.40
70151;DHT22;57517;43.562;19.540;2023-08-06T02:54:42;537.60;2406.40
70151;DHT22;57517;43.562;19.540;2023-08-06T02:57:08;512.80;2380.80
70151;DHT22;57517;43.562;19.540;2023-08-06T02:59:34;512.80;2380.80
70151;DHT22;57517;43.562;19.540;2023-08-06T03:02:00;512.70;2380.80
70151;DHT22;57517;43.562;19.540;2023-08-06T03:04:25;512.70;2380.80
70151;DHT22;57517;43.562;19.540;2023-08-06T03:06:51;512.70;2380.80
70151;DHT22;57517;43.562;19.540;2023-08-06T03:09:18;512.70;2380.80
70151;DHT22;57517;43.562;19.540;2023-08-06T03:11:43;512.60;2380.80
70151;DHT22;57517;43.562;19.540;2023-08-06T03:14:09;512.60;2380.80
70151;DHT22;57517;43.562;19.540;2023-08-06T03:16:35;512.50;2380.80
70151;DHT22;57517;43.562;19.540;2023-08-06T03:19:01;512.50;2380.80
70151;DHT22;57517;43.562;19.540;2023-08-06T03:21:27;512.30;2380.80
70151;DHT22;57517;43.562;19.540;2023-08-06T03:23:53;512.50;2380.80
70151;DHT22;57517;43.562;19.540;2023-08-06T03:26:19;512.50;2380.80
70151;DHT22;57517;43.562;19.540;2023-08-06T03:28:45;512.60;2380.80
70151;DHT22;57517;43.562;19.540;2023-08-06T03:31:11;512.60;2380.80
70151;DHT22;57517;43.562;19.540;2023-08-06T03:33:36;512.40;2380.80
70151;DHT22;57517;43.562;19.540;2023-08-06T03:36:02;512.40;2380.80
70151;DHT22;57517;43.562;19.540;2023-08-06T03:38:28;512.30;2380.80
70151;DHT22;57517;43.562;19.540;2023-08-06T03:40:54;512.20;2380.80
70151;DHT22;57517;43.562;19.540;2023-08-06T03:43:20;512.10;2380.80
70151;DHT22;57517;43.562;19.540;2023-08-06T03:45:45;487.30;2380.80
70151;DHT22;57517;43.562;19.540;2023-08-06T03:48:11;487.20;2380.80
70151;DHT22;57517;43.562;19.540;2023-08-06T03:50:37;487.30;2380.80
70151;DHT22;57517;43.562;19.540;2023-08-06T03:53:03;512.00;2380.80
70151;DHT22;57517;43.562;19.540;2023-08-06T03:55:29;512.10;2380.80
70151;DHT22;57517;43.562;19.540;2023-08-06T03:57:55;512.20;2380.80
70151;DHT22;57517;43.562;19.540;2023-08-06T04:00:21;512.10;2380.80
70151;DHT22;57517;43.562;19.540;2023-08-06T04:02:46;512.10;2380.80
70151;DHT22;57517;43.562;19.540;2023-08-06T04:05:13;512.20;2380.80
70151;DHT22;57517;43.562;19.540;2023-08-06T04:07:39;512.40;2380.80
70151;DHT22;57517;43.562;19.540;2023-08-06T04:10:05;512.50;2380.80
70151;DHT22;57517;43.562;19.540;2023-08-06T04:12:31;512.40;2380.80
70151;DHT22;57517;43.562;19.540;2023-08-06T04:14:59;512.40;2380.80
70151;DHT22;57517;43.562;19.540;2023-08-06T04:17:25;512.40;2380.80
70151;DHT22;57517;43.562;19.540;2023-08-06T04:19:52;512.40;2380.80
70151;DHT22;57517;43.562;19.540;2023-08-06T04:22:18;512.60;2380.80
70151;DHT22;57517;43.562;19.540;2023-08-06T04:24:44;512.70;2380.80
70151;DHT22;57517;43.562;19.540;2023-08-06T04:27:11;512.70;2380.80
70151;DHT22;57517;43.562;19.540;2023-08-06T04:29:37;512.70;2380.80
70151;DHT22;57517;43.562;19.540;2023-08-06T04:32:08;512.50;2380.80
70151;DHT22;57517;43.562;19.540;2023-08-06T04:34:35;512.60;2380.80
70151;DHT22;57517;43.562;19.540;2023-08-06T04:37:02;512.60;2380.80
70151;DHT22;57517;43.562;19.540;2023-08-06T04:39:27;512.30;2380.80
70151;DHT22;57517;43.562;19.540;2023-08-06T04:41:54;512.20;2380.80
70151;DHT22;57517;43.562;19.540;2023-08-06T04:44:21;512.40;2380.80
70151;DHT22;57517;43.562;19.540;2023-08-06T04:46:46;512.20;2380.80
70151;DHT22;57517;43.562;19.540;2023-08-06T04:49:12;512.20;2380.80
70151;DHT22;57517;43.562;19.540;2023-08-06T04:51:38;512.00;2380.80
70151;DHT22;57517;43.562;19.540;2023-08-06T04:54:04;512.20;2380.80
70151;DHT22;57517;43.562;19.540;2023-08-06T04:56:30;512.40;2380.80
70151;DHT22;57517;43.562;19.540;2023-08-06T04:58:55;512.40;2380.80
70151;DHT22;57517;43.562;19.540;2023-08-06T05:01:21;512.60;2380.80
70151;DHT22;57517;43.562;19.540;2023-08-06T05:03:47;537.60;2406.40
70151;DHT22;57517;43.562;19.540;2023-08-06T05:06:13;563.20;2432.00
70151;DHT22;57517;43.562;19.540;2023-08-06T05:08:39;589.70;2227.20
70151;DHT22;57517;43.562;19.540;2023-08-06T05:11:06;640.40;1868.80
70151;DHT22;57517;43.562;19.540;2023-08-06T05:13:32;666.40;1689.60
70151;DHT22;57517;43.562;19.540;2023-08-06T05:15:58;691.40;1587.20
70151;DHT22;57517;43.562;19.540;2023-08-06T05:18:23;692.10;1536.00
70151;DHT22;57517;43.562;19.540;2023-08-06T05:20:49;717.70;1459.20
70151;DHT22;57517;43.562;19.540;2023-08-06T05:23:15;742.70;1433.60
70151;DHT22;57517;43.562;19.540;2023-08-06T05:25:42;717.70;1433.60
70151;DHT22;57517;43.562;19.540;2023-08-06T05:28:08;717.70;1459.20
70151;DHT22;57517;43.562;19.540;2023-08-06T05:30:33;717.10;1459.20
70151;DHT22;57517;43.562;19.540;2023-08-06T05:33:02;691.90;1510.40
70151;DHT22;57517;43.562;19.540;2023-08-06T05:35:28;691.60;1536.00
70151;DHT22;57517;43.562;19.540;2023-08-06T05:37:54;666.00;1638.40
70151;DHT22;57517;43.562;19.540;2023-08-06T05:40:19;640.10;1792.00
70151;DHT22;57517;43.562;19.540;2023-08-06T05:42:45;615.30;1817.60
70151;DHT22;57517;43.562;19.540;2023-08-06T05:45:11;640.40;1740.80
70151;DHT22;57517;43.562;19.540;2023-08-06T05:47:37;691.90;1561.60
70151;DHT22;57517;43.562;19.540;2023-08-06T05:50:02;717.70;1459.20
70151;DHT22;57517;43.562;19.540;2023-08-06T05:52:28;716.90;1484.80
70151;DHT22;57517;43.562;19.540;2023-08-06T05:54:54;691.50;1536.00
70151;DHT22;57517;43.562;19.540;2023-08-06T05:57:20;691.60;1536.00
70151;DHT22;57517;43.562;19.540;2023-08-06T05:59:46;691.60;1536.00
70151;DHT22;57517;43.562;19.540;2023-08-06T06:02:12;691.70;1510.40
70151;DHT22;57517;43.562;19.540;2023-08-06T06:07:04;717.60;1433.60
70151;DHT22;57517;43.562;19.540;2023-08-06T06:11:56;794.50;1254.40
70151;DHT22;57517;43.562;19.540;2023-08-06T06:14:22;845.40;1177.60
70151;DHT22;57517;43.562;19.540;2023-08-06T06:21:40;922.20;998.40
70151;DHT22;57517;43.562;19.540;2023-08-06T06:31:25;973.50;870.40
70151;DHT22;57517;43.562;19.540;2023-08-06T06:33:51;973.00;896.00
70151;DHT22;57517;43.562;19.540;2023-08-06T06:36:19;948.00;896.00
70151;DHT22;57517;43.562;19.540;2023-08-06T06:38:45;973.40;870.40
70151;DHT22;57517;43.562;19.540;2023-08-06T06:41:11;973.60;870.40
70151;DHT22;57517;43.562;19.540;2023-08-06T06:43:37;998.70;870.40
70151;DHT22;57517;43.562;19.540;2023-08-06T06:46:05;999.20;844.80
70151;DHT22;57517;43.562;19.540;2023-08-06T06:48:32;1024.30;844.80
70151;DHT22;57517;43.562;19.540;2023-08-06T06:50:58;1049.60;844.80
70151;DHT22;57517;43.562;19.540;2023-08-06T06:53:25;1049.90;793.60
70151;DHT22;57517;43.562;19.540;2023-08-06T06:56:00;1050.20;768.00
70151;DHT22;57517;43.562;19.540;2023-08-06T07:13:04;1100.80;742.40
70151;DHT22;57517;43.562;19.540;2023-08-06T07:15:30;1126.40;716.80
70151;DHT22;57517;43.562;19.540;2023-08-06T07:30:08;1050.00;768.00
70151;DHT22;57517;43.562;19.540;2023-08-06T07:32:34;1050.00;768.00
70151;DHT22;57517;43.562;19.540;2023-08-06T07:54:43;973.40;844.80
70151;DHT22;57517;43.562;19.540;2023-08-06T07:57:09;972.90;870.40
70151;DHT22;57517;43.562;19.540;2023-08-06T08:04:27;921.80;921.60
70151;DHT22;57517;43.562;19.540;2023-08-06T08:06:53;921.80;921.60
70151;DHT22;57517;43.562;19.540;2023-08-06T08:09:19;922.10;921.60
70151;DHT22;57517;43.562;19.540;2023-08-06T08:11:45;922.30;896.00
70151;DHT22;57517;43.562;19.540;2023-08-06T08:14:11;947.40;870.40
70151;DHT22;57517;43.562;19.540;2023-08-06T08:16:37;922.50;921.60
70151;DHT22;57517;43.562;19.540;2023-08-06T08:19:02;947.20;896.00
70151;DHT22;57517;43.562;19.540;2023-08-06T08:21:29;896.80;921.60
70151;DHT22;57517;43.562;19.540;2023-08-06T08:23:55;896.30;947.20
70151;DHT22;57517;43.562;19.540;2023-08-06T08:26:21;871.00;972.80
70151;DHT22;57517;43.562;19.540;2023-08-06T08:36:05;845.50;1024.00
70151;DHT22;57517;43.562;19.540;2023-08-06T08:38:31;845.20;1049.60
70151;DHT22;57517;43.562;19.540;2023-08-06T08:43:23;844.90;1075.20
70151;DHT22;57517;43.562;19.540;2023-08-06T08:45:53;844.90;1075.20
70151;DHT22;57517;43.562;19.540;2023-08-06T08:48:25;820.10;1049.60
70151;DHT22;57517;43.562;19.540;2023-08-06T08:50:53;820.00;1075.20
70151;DHT22;57517;43.562;19.540;2023-08-06T08:53:19;819.60;1100.80
70151;DHT22;57517;43.562;19.540;2023-08-06T08:55:48;819.80;1075.20
70151;DHT22;57517;43.562;19.540;2023-08-06T08:58:14;819.40;1100.80
70151;DHT22;57517;43.562;19.540;2023-08-06T09:00:45;819.30;1126.40
70151;DHT22;57517;43.562;19.540;2023-08-06T09:03:11;794.00;1152.00
70151;DHT22;57517;43.562;19.540;2023-08-06T09:05:40;794.20;1126.40
70151;DHT22;57517;43.562;19.540;2023-08-06T09:08:11;794.20;1126.40
70151;DHT22;57517;43.562;19.540;2023-08-06T09:10:39;794.30;1126.40
70151;DHT22;57517;43.562;19.540;2023-08-06T09:13:06;793.80;1152.00
70151;DHT22;57517;43.562;19.540;2023-08-06T09:15:32;794.00;1152.00
70151;DHT22;57517;43.562;19.540;2023-08-06T09:17:59;794.30;1126.40
70151;DHT22;57517;43.562;19.540;2023-08-06T09:20:24;793.80;1152.00
70151;DHT22;57517;43.562;19.540;2023-08-06T09:22:53;793.90;1126.40
70151;DHT22;57517;43.562;19.540;2023-08-06T09:25:23;768.90;1126.40
70151;DHT22;57517;43.562;19.540;2023-08-06T09:27:51;768.70;1075.20
70151;DHT22;57517;43.562;19.540;2023-08-06T09:30:35;768.80;1100.80
70151;DHT22;57517;43.562;19.540;2023-08-06T09:33:01;793.60;1126.40
70151;DHT22;57517;43.562;19.540;2023-08-06T09:35:31;768.60;1126.40
70151;DHT22;57517;43.562;19.540;2023-08-06T09:38:07;768.50;1126.40
70151;DHT22;57517;43.562;19.540;2023-08-06T09:40:34;793.60;1126.40
70151;DHT22;57517;43.562;19.540;2023-08-06T09:43:00;768.50;1126.40
70151;DHT22;57517;43.562;19.540;2023-08-06T09:45:31;768.40;1152.00
70151;DHT22;57517;43.562;19.540;2023-08-06T09:47:59;768.20;1126.40
70151;DHT22;57517;43.562;19.540;2023-08-06T09:50:32;743.20;1126.40
70151;DHT22;57517;43.562;19.540;2023-08-06T09:52:58;768.30;1100.80
70151;DHT22;57517;43.562;19.540;2023-08-06T09:55:25;768.60;1126.40
70151;DHT22;57517;43.562;19.540;2023-08-06T09:57:53;768.90;1100.80
70151;DHT22;57517;43.562;19.540;2023-08-06T10:00:19;793.90;1100.80
70151;DHT22;57517;43.562;19.540;2023-08-06T10:02:46;793.70;1100.80
70151;DHT22;57517;43.562;19.540;2023-08-06T10:05:12;768.90;1049.60
70151;DHT22;57517;43.562;19.540;2023-08-06T10:07:38;768.70;1075.20
70151;DHT22;57517;43.562;19.540;2023-08-06T10:10:06;768.70;1100.80
70151;DHT22;57517;43.562;19.540;2023-08-06T10:12:34;768.90;1075.20
70151;DHT22;57517;43.562;19.540;2023-08-06T10:15:04;768.90;1075.20
70151;DHT22;57517;43.562;19.540;2023-08-06T10:17:34;793.60;1075.20
70151;DHT22;57517;43.562;19.540;2023-08-06T10:20:02;793.80;1075.20
70151;DHT22;57517;43.562;19.540;2023-08-06T10:22:33;794.20;1049.60
70151;DHT22;57517;43.562;19.540;2023-08-06T10:25:00;794.30;1075.20
70151;DHT22;57517;43.562;19.540;2023-08-06T10:27:33;794.30;1075.20
70151;DHT22;57517;43.562;19.540;2023-08-06T10:30:24;794.30;1049.60
70151;DHT22;57517;43.562;19.540;2023-08-06T10:32:52;793.80;1100.80
70151;DHT22;57517;43.562;19.540;2023-08-06T10:35:44;768.80;1075.20
70151;DHT22;57517;43.562;19.540;2023-08-06T10:40:52;768.10;1126.40
70151;DHT22;57517;43.562;19.540;2023-08-06T10:43:36;768.00;1126.40
70151;DHT22;57517;43.562;19.540;2023-08-06T10:46:21;768.10;1152.00
70151;DHT22;57517;43.562;19.540;2023-08-06T10:48:47;743.10;1177.60
70151;DHT22;57517;43.562;19.540;2023-08-06T10:51:14;742.50;1203.20
70151;DHT22;57517;43.562;19.540;2023-08-06T10:53:48;742.70;1203.20
70151;DHT22;57517;43.562;19.540;2023-08-06T10:56:16;742.80;1126.40
70151;DHT22;57517;43.562;19.540;2023-08-06T10:58:42;742.80;1126.40
70151;DHT22;57517;43.562;19.540;2023-08-06T11:01:10;743.10;1126.40
70151;DHT22;57517;43.562;19.540;2023-08-06T11:03:37;742.80;1100.80
70151;DHT22;57517;43.562;19.540;2023-08-06T11:06:03;743.00;1100.80
70151;DHT22;57517;43.562;19.540;2023-08-06T11:08:37;742.90;1126.40
70151;DHT22;57517;43.562;19.540;2023-08-06T11:11:12;742.80;1126.40
70151;DHT22;57517;43.562;19.540;2023-08-06T11:13:43;742.80;1126.40
70151;DHT22;57517;43.562;19.540;2023-08-06T11:16:12;742.70;1126.40
70151;DHT22;57517;43.562;19.540;2023-08-06T11:18:38;742.60;1152.00
70151;DHT22;57517;43.562;19.540;2023-08-06T11:21:05;742.70;1126.40
70151;DHT22;57517;43.562;19.540;2023-08-06T11:23:31;742.40;1152.00
70151;DHT22;57517;43.562;19.540;2023-08-06T11:25:57;717.50;1177.60
70151;DHT22;57517;43.562;19.540;2023-08-06T11:28:24;717.40;1203.20
70151;DHT22;57517;43.562;19.540;2023-08-06T11:30:51;717.20;1203.20
70151;DHT22;57517;43.562;19.540;2023-08-06T11:33:24;716.90;1254.40
70151;DHT22;57517;43.562;19.540;2023-08-06T11:35:57;717.10;1305.60
70151;DHT22;57517;43.562;19.540;2023-08-06T11:38:30;717.40;1228.80
70151;DHT22;57517;43.562;19.540;2023-08-06T11:40:56;742.40;1228.80
70151;DHT22;57517;43.562;19.540;2023-08-06T11:43:22;742.80;1228.80
70151;DHT22;57517;43.562;19.540;2023-08-06T11:45:51;743.10;1254.40
70151;DHT22;57517;43.562;19.540;2023-08-06T11:48:19;743.10;1228.80
70151;DHT22;57517;43.562;19.540;2023-08-06T11:50:45;742.80;1203.20
70151;DHT22;57517;43.562;19.540;2023-08-06T11:53:15;742.70;1254.40
70151;DHT22;57517;43.562;19.540;2023-08-06T11:55:41;717.70;1254.40
70151;DHT22;57517;43.562;19.540;2023-08-06T11:58:09;717.70;1254.40
70151;DHT22;57517;43.562;19.540;2023-08-06T12:00:36;717.20;1254.40
70151;DHT22;57517;43.562;19.540;2023-08-06T12:03:04;717.20;1254.40
70151;DHT22;57517;43.562;19.540;2023-08-06T12:05:31;717.50;1228.80
70151;DHT22;57517;43.562;19.540;2023-08-06T12:07:59;717.70;1228.80
70151;DHT22;57517;43.562;19.540;2023-08-06T12:10:27;742.60;1254.40
70151;DHT22;57517;43.562;19.540;2023-08-06T12:12:53;742.80;1228.80
70151;DHT22;57517;43.562;19.540;2023-08-06T12:15:19;742.50;1254.40
70151;DHT22;57517;43.562;19.540;2023-08-06T12:17:45;742.40;1254.40
70151;DHT22;57517;43.562;19.540;2023-08-06T12:20:11;717.60;1228.80
70151;DHT22;57517;43.562;19.540;2023-08-06T12:22:38;742.60;1203.20
70151;DHT22;57517;43.562;19.540;2023-08-06T12:25:06;742.50;1228.80
70151;DHT22;57517;43.562;19.540;2023-08-06T12:27:36;717.70;1228.80
70151;DHT22;57517;43.562;19.540;2023-08-06T12:30:03;717.60;1228.80
70151;DHT22;57517;43.562;19.540;2023-08-06T12:32:30;717.50;1228.80
70151;DHT22;57517;43.562;19.540;2023-08-06T12:34:57;717.40;1280.00
70151;DHT22;57517;43.562;19.540;2023-08-06T12:37:24;717.30;1254.40
70151;DHT22;57517;43.562;19.540;2023-08-06T12:39:51;717.60;1228.80
70151;DHT22;57517;43.562;19.540;2023-08-06T12:42:17;742.40;1254.40
70151;DHT22;57517;43.562;19.540;2023-08-06T12:44:43;717.60;1254.40
70151;DHT22;57517;43.562;19.540;2023-08-06T12:47:08;717.50;1228.80
70151;DHT22;57517;43.562;19.540;2023-08-06T12:49:34;717.50;1228.80
70151;DHT22;57517;43.562;19.540;2023-08-06T12:52:00;717.40;1254.40
70151;DHT22;57517;43.562;19.540;2023-08-06T12:54:26;717.20;1203.20
70151;DHT22;57517;43.562;19.540;2023-08-06T12:56:52;717.00;1228.80
70151;DHT22;57517;43.562;19.540;2023-08-06T12:59:18;717.00;1228.80
70151;DHT22;57517;43.562;19.540;2023-08-06T13:01:45;717.00;1280.00
70151;DHT22;57517;43.562;19.540;2023-08-06T13:04:12;692.00;1203.20
70151;DHT22;57517;43.562;19.540;2023-08-06T13:06:38;692.10;1228.80
70151;DHT22;57517;43.562;19.540;2023-08-06T13:09:12;717.00;1228.80
70151;DHT22;57517;43.562;19.540;2023-08-06T13:11:39;717.20;1203.20
70151;DHT22;57517;43.562;19.540;2023-08-06T13:14:07;717.30;1228.80
70151;DHT22;57517;43.562;19.540;2023-08-06T13:16:33;717.20;1177.60
70151;DHT22;57517;43.562;19.540;2023-08-06T13:18:59;717.10;1203.20
70151;DHT22;57517;43.562;19.540;2023-08-06T13:21:35;717.10;1177.60
70151;DHT22;57517;43.562;19.540;2023-08-06T13:24:02;717.50;1177.60
70151;DHT22;57517;43.562;19.540;2023-08-06T13:26:31;717.40;1177.60
70151;DHT22;57517;43.562;19.540;2023-08-06T13:28:58;717.60;1152.00
70151;DHT22;57517;43.562;19.540;2023-08-06T13:31:24;742.40;1152.00
70151;DHT22;57517;43.562;19.540;2023-08-06T13:33:50;742.40;1126.40
70151;DHT22;57517;43.562;19.540;2023-08-06T13:36:17;717.70;1152.00
70151;DHT22;57517;43.562;19.540;2023-08-06T13:38:42;717.60;1126.40
70151;DHT22;57517;43.562;19.540;2023-08-06T13:41:08;717.60;1126.40
70151;DHT22;57517;43.562;19.540;2023-08-06T13:43:34;742.40;1177.60
70151;DHT22;57517;43.562;19.540;2023-08-06T13:46:00;742.60;1152.00
70151;DHT22;57517;43.562;19.540;2023-08-06T13:48:26;742.80;1152.00
70151;DHT22;57517;43.562;19.540;2023-08-06T13:50:52;742.90;1152.00
70151;DHT22;57517;43.562;19.540;2023-08-06T13:53:18;742.90;1177.60
70151;DHT22;57517;43.562;19.540;2023-08-06T13:55:44;743.10;1152.00
70151;DHT22;57517;43.562;19.540;2023-08-06T13:58:09;743.10;1177.60
70151;DHT22;57517;43.562;19.540;2023-08-06T14:00:36;743.00;1177.60
70151;DHT22;57517;43.562;19.540;2023-08-06T14:03:02;742.70;1177.60
70151;DHT22;57517;43.562;19.540;2023-08-06T14:05:28;742.60;1203.20
70151;DHT22;57517;43.562;19.540;2023-08-06T14:07:53;742.60;1203.20
70151;DHT22;57517;43.562;19.540;2023-08-06T14:10:19;742.40;1203.20
70151;DHT22;57517;43.562;19.540;2023-08-06T14:12:45;742.40;1177.60
70151;DHT22;57517;43.562;19.540;2023-08-06T14:15:11;717.70;1177.60
70151;DHT22;57517;43.562;19.540;2023-08-06T14:17:37;717.10;1254.40
70151;DHT22;57517;43.562;19.540;2023-08-06T14:20:04;717.10;1177.60
70151;DHT22;57517;43.562;19.540;2023-08-06T14:22:30;717.00;1228.80
70151;DHT22;57517;43.562;19.540;2023-08-06T14:24:59;716.90;1203.20
70151;DHT22;57517;43.562;19.540;2023-08-06T14:27:25;692.00;1228.80
70151;DHT22;57517;43.562;19.540;2023-08-06T14:29:50;691.90;1254.40
70151;DHT22;57517;43.562;19.540;2023-08-06T14:32:16;691.70;1280.00
70151;DHT22;57517;43.562;19.540;2023-08-06T14:34:44;691.60;1356.80
70151;DHT22;57517;43.562;19.540;2023-08-06T14:37:10;691.40;1459.20
70151;DHT22;57517;43.562;19.540;2023-08-06T14:39:36;691.50;1484.80
70151;DHT22;57517;43.562;19.540;2023-08-06T14:42:03;666.50;1433.60
70151;DHT22;57517;43.562;19.540;2023-08-06T14:44:29;665.90;1408.00
70151;DHT22;57517;43.562;19.540;2023-08-06T14:46:55;665.60;1459.20
70151;DHT22;57517;43.562;19.540;2023-08-06T14:49:20;640.90;1433.60
70151;DHT22;57517;43.562;19.540;2023-08-06T14:51:46;640.50;1433.60
70151;DHT22;57517;43.562;19.540;2023-08-06T14:54:12;640.40;1433.60
70151;DHT22;57517;43.562;19.540;2023-08-06T14:56:39;640.40;1459.20
70151;DHT22;57517;43.562;19.540;2023-08-06T14:59:05;640.20;1459.20
70151;DHT22;57517;43.562;19.540;2023-08-06T15:01:31;640.00;1484.80
70151;DHT22;57517;43.562;19.540;2023-08-06T15:03:56;615.10;1510.40
70151;DHT22;57517;43.562;19.540;2023-08-06T15:06:22;615.20;1536.00
70151;DHT22;57517;43.562;19.540;2023-08-06T15:08:48;640.00;1536.00
70151;DHT22;57517;43.562;19.540;2023-08-06T15:11:14;615.30;1561.60
70151;DHT22;57517;43.562;19.540;2023-08-06T15:13:43;615.10;1587.20
70151;DHT22;57517;43.562;19.540;2023-08-06T15:16:08;615.10;1612.80
70151;DHT22;57517;43.562;19.540;2023-08-06T15:18:34;615.10;1612.80
70151;DHT22;57517;43.562;19.540;2023-08-06T15:21:00;615.30;1587.20
70151;DHT22;57517;43.562;19.540;2023-08-06T15:23:26;640.00;1561.60
70151;DHT22;57517;43.562;19.540;2023-08-06T15:25:53;615.00;1587.20
70151;DHT22;57517;43.562;19.540;2023-08-06T15:28:19;615.30;1561.60
70151;DHT22;57517;43.562;19.540;2023-08-06T15:30:51;640.10;1536.00
70151;DHT22;57517;43.562;19.540;2023-08-06T15:33:18;640.20;1587.20
70151;DHT22;57517;43.562;19.540;2023-08-06T15:35:44;615.30;1664.00
70151;DHT22;57517;43.562;19.540;2023-08-06T15:38:10;615.30;1638.40
70151;DHT22;57517;43.562;19.540;2023-08-06T15:40:36;615.10;1664.00
70151;DHT22;57517;43.562;19.540;2023-08-06T15:43:02;615.10;1689.60
70151;DHT22;57517;43.562;19.540;2023-08-06T15:45:28;615.10;1715.20
70151;DHT22;57517;43.562;19.540;2023-08-06T15:47:54;614.90;1740.80
70151;DHT22;57517;43.562;19.540;2023-08-06T15:50:20;614.70;1792.00
70151;DHT22;57517;43.562;19.540;2023-08-06T15:52:45;614.60;1894.40
70151;DHT22;57517;43.562;19.540;2023-08-06T15:55:11;614.60;1868.80
70151;DHT22;57517;43.562;19.540;2023-08-06T15:57:38;614.70;1817.60
70151;DHT22;57517;43.562;19.540;2023-08-06T16:00:04;614.70;1817.60